createdAt,value
2023-01-12T00:01:36.579Z,25.4
2023-01-12T00:06:28.444Z,24.8
2023-01-12T00:11:18.750Z,25.7
2023-01-12T00:16:26.253Z,31.6
2023-01-12T00:21:48.395Z,33.4
2023-01-12T00:26:40.038Z,31.2
2023-01-12T00:32:02.427Z,29
2023-01-12T00:37:25.097Z,26.6
2023-01-12T00:42:52.717Z,25.6
2023-01-12T00:48:14.784Z,24.8
2023-01-12T00:53:37.928Z,26.2
2023-01-12T00:59:00.088Z,31.9
2023-01-12T01:04:23.433Z,33.1
2023-01-12T01:09:14.936Z,31.1
2023-01-12T01:14:06.930Z,28.9
2023-01-12T01:19:14.233Z,26.5
2023-01-12T01:24:21.264Z,25.6
2023-01-12T01:29:12.612Z,24.7
2023-01-12T01:34:18.454Z,24.4
2023-01-12T01:39:25.542Z,31.1
2023-01-12T01:44:47.832Z,33.4
2023-01-12T01:50:09.906Z,31.8
2023-01-12T01:55:17.234Z,30.4
2023-01-12T02:00:39.279Z,26.8
2023-01-12T02:05:51.122Z,25.9
2023-01-12T02:10:42.598Z,24.8
2023-01-12T02:16:05.200Z,24.3
2023-01-12T02:21:27.019Z,30.9
2023-01-12T02:26:49.281Z,33.3
2023-01-12T02:31:56.934Z,32.1
2023-01-12T02:37:18.921Z,30.6
2023-01-12T02:42:43.842Z,26.7
2023-01-12T02:48:05.854Z,25.8
2023-01-12T02:53:27.216Z,24.7
2023-01-12T02:58:50.007Z,25.7
2023-01-12T03:04:13.102Z,31.6
2023-01-12T03:09:34.992Z,33.6
2023-01-12T03:14:41.931Z,31.8
2023-01-12T03:20:04.341Z,30.6
2023-01-12T03:30:33.684Z,25.8
2023-01-12T03:35:56.452Z,24.6
2023-01-12T03:41:19.032Z,26.5
2023-01-12T03:46:41.950Z,31.7
2023-01-12T03:52:04.183Z,33.6
2023-01-12T03:57:25.736Z,31.9
2023-01-12T04:02:48.664Z,30.6
2023-01-12T04:08:11.562Z,26.6
2023-01-12T04:13:02.600Z,25.8
2023-01-12T04:18:25.733Z,24.6
2023-01-12T04:23:48.373Z,25.7
2023-01-12T04:28:38.776Z,31.5
2023-01-12T04:34:01.608Z,26.5
2023-01-12T04:39:24.269Z,23.4
2023-01-12T04:44:48.743Z,31.3
2023-01-12T04:50:11.035Z,33.7
2023-01-12T04:55:33.957Z,32.1
2023-01-12T05:00:56.313Z,30.6
2023-01-12T05:06:22.174Z,26.6
2023-01-12T05:11:44.055Z,25.7
2023-01-12T05:17:06.454Z,24.6
2023-01-12T05:22:32.435Z,27.3
2023-01-12T05:27:39.108Z,32.1
2023-01-12T05:33:03.050Z,33.8
2023-01-12T05:38:10.489Z,31.9
2023-01-12T05:43:17.468Z,30.6
2023-01-12T05:48:39.033Z,26.6
2023-01-12T05:54:01.339Z,25.8
2023-01-12T05:59:08.707Z,24.6
2023-01-12T06:04:32.003Z,26.3
2023-01-12T06:09:25.635Z,31.8
2023-01-12T06:14:32.574Z,33.5
2023-01-12T06:19:55.421Z,32.6
2023-01-12T06:25:18.268Z,30.9
2023-01-12T06:30:40.417Z,26.9
2023-01-12T06:36:10.720Z,25.9
2023-01-12T06:41:33.716Z,24.7
2023-01-12T06:46:56.646Z,25.8
2023-01-12T06:52:18.905Z,31.6
2023-01-12T06:57:41.106Z,33.6
2023-01-12T07:03:04.222Z,32.4
2023-01-12T07:08:26.795Z,30.8
2023-01-12T07:13:50.148Z,26.8
2023-01-12T07:19:15.292Z,25.8
2023-01-12T07:24:38.003Z,24.6
2023-01-12T07:30:03.346Z,26.8
2023-01-12T07:35:25.776Z,31.9
2023-01-12T07:40:50.794Z,33.8
2023-01-12T07:46:13.484Z,32.1
2023-01-12T07:51:37.873Z,30.8
2023-01-12T07:57:00.921Z,26.6
2023-01-12T08:02:26.356Z,25.8
2023-01-12T08:07:48.802Z,24.6
2023-01-12T08:13:11.720Z,24.1
2023-01-12T08:18:34.272Z,23.5
2023-01-12T08:23:58.465Z,23.1
2023-01-12T08:29:21.112Z,22.8
2023-01-12T08:35:00.370Z,25.1
2023-01-12T08:40:25.440Z,31.4
2023-01-12T08:45:49.378Z,31.2
2023-01-12T08:51:15.860Z,30.2
2023-01-12T08:56:38.395Z,26.5
2023-01-12T09:01:46.781Z,25.6
2023-01-12T09:06:54.420Z,24.1
2023-01-12T09:12:17.435Z,23.7
2023-01-12T09:17:54.722Z,23
2023-01-12T09:23:18.107Z,22.7
2023-01-12T09:28:43.098Z,30.2
2023-01-12T09:34:15.747Z,31.7
2023-01-12T09:39:45.061Z,30.6
2023-01-12T09:44:52.568Z,27.7
2023-01-12T09:50:25.382Z,25.9
2023-01-12T09:55:48.032Z,24.5
2023-01-12T10:01:29.902Z,23.8
2023-01-12T10:07:03.736Z,23.1
2023-01-12T10:12:26.993Z,22.8
2023-01-12T10:17:42.262Z,29.3
2023-01-12T10:23:16.432Z,32.1
2023-01-12T10:28:39.408Z,30.9
2023-01-12T10:34:06.388Z,28.8
2023-01-12T10:39:28.470Z,26
2023-01-12T10:45:01.602Z,24.8
2023-01-12T10:50:24.383Z,23.8
2023-01-12T10:55:50.205Z,23.2
2023-01-12T11:01:13.286Z,22.8
2023-01-12T11:06:37.492Z,28.6
2023-01-12T11:12:01.983Z,31.8
2023-01-12T11:17:29.007Z,31.3
2023-01-12T11:22:55.329Z,30.1
2023-01-12T11:28:17.500Z,26.2
2023-01-12T11:33:25.790Z,25.3
2023-01-12T11:38:33.284Z,23.9
2023-01-12T11:43:40.563Z,23.5
2023-01-12T11:49:06.377Z,22.8
2023-01-12T11:54:31.154Z,26.2
2023-01-12T11:59:57.374Z,31.1
2023-01-12T12:05:20.849Z,31.6
2023-01-12T12:10:43.745Z,30.5
2023-01-12T12:16:10.024Z,26.9
2023-01-12T12:21:19.587Z,25.6
2023-01-12T12:26:43.528Z,24.1
2023-01-12T12:32:06.337Z,23.6
2023-01-12T12:37:13.563Z,28.1
2023-01-12T12:42:36.869Z,31.6
2023-01-12T12:47:59.689Z,31.4
2023-01-12T12:53:22.131Z,30.3
2023-01-12T12:58:48.463Z,26.4
2023-01-12T13:03:41.000Z,25.4
2023-01-12T13:08:33.093Z,24
2023-01-12T13:13:43.240Z,23.6
2023-01-12T13:19:06.432Z,28.1
2023-01-12T13:24:37.384Z,31.8
2023-01-12T13:30:00.652Z,31.3
2023-01-12T13:34:54.525Z,30.3
2023-01-12T13:40:20.669Z,26.5
2023-01-12T13:45:31.259Z,25.4
2023-01-12T13:50:54.541Z,24
2023-01-12T13:56:17.793Z,23.5
2023-01-12T14:01:41.703Z,29.1
2023-01-12T14:07:07.883Z,31.9
2023-01-12T14:12:44.575Z,30.9
2023-01-12T14:18:29.854Z,29.6
2023-01-12T14:23:52.298Z,25.6
2023-01-12T14:29:15.507Z,24.5
2023-01-12T14:34:39.086Z,23.6
2023-01-12T14:40:01.149Z,23.8
2023-01-12T14:45:24.315Z,30.5
2023-01-12T14:50:47.301Z,32.3
2023-01-12T14:56:09.857Z,30.8
2023-01-12T15:01:33.524Z,29.8
2023-01-12T15:07:05.296Z,28.8
2023-01-12T15:12:27.555Z,27.9
2023-01-12T15:17:50.143Z,26.9
2023-01-12T15:23:13.131Z,26.1
2023-01-12T15:28:47.770Z,25.3
2023-01-12T15:34:23.915Z,24.6
2023-01-12T15:39:46.652Z,23.9
2023-01-12T15:45:08.586Z,23.2
2023-01-12T15:50:31.703Z,22.7
2023-01-12T15:55:54.376Z,22.3
2023-01-12T16:01:00.588Z,21.9
2023-01-12T16:07:29.584Z,21.6
2023-01-12T16:12:54.312Z,30.9
2023-01-12T16:18:01.673Z,34.4
2023-01-12T16:23:24.392Z,37.5
2023-01-12T16:28:48.959Z,38.8
2023-01-12T16:34:12.937Z,38.3
2023-01-12T16:39:35.684Z,37.3
2023-01-12T16:44:45.321Z,37.1
2023-01-12T16:49:52.915Z,38.1
2023-01-12T16:55:16.299Z,39.1
2023-01-12T17:00:43.116Z,39.4
2023-01-12T17:06:09.986Z,38.8
2023-01-12T17:11:04.605Z,38.7
2023-01-12T17:16:40.424Z,38.4
2023-01-12T17:21:51.040Z,37.4
2023-01-12T17:27:16.317Z,38.4
2023-01-12T17:32:13.155Z,37.6
2023-01-12T17:37:20.370Z,37.6
2023-01-12T17:42:43.853Z,38.4
2023-01-12T17:48:08.451Z,39.4
2023-01-12T17:53:19.410Z,39.8
2023-01-12T17:58:37.208Z,39.7
2023-01-12T18:04:01.931Z,38.9
2023-01-12T18:09:47.893Z,39
2023-01-12T18:15:12.028Z,38
2023-01-12T18:20:21.063Z,39.2
2023-01-12T18:25:44.447Z,39.9
2023-01-12T18:31:09.497Z,40.1
2023-01-12T18:36:34.948Z,40.1
2023-01-12T18:42:00.029Z,40
2023-01-12T18:47:26.263Z,40.1
2023-01-12T18:52:36.782Z,39.9
2023-01-12T18:58:05.616Z,39.6
2023-01-12T19:03:34.317Z,39.3
2023-01-12T19:09:02.808Z,38.3
2023-01-12T19:14:32.869Z,38.9
2023-01-12T19:20:03.530Z,37.9
2023-01-12T19:25:02.850Z,39.2
2023-01-12T19:30:20.140Z,38.6
2023-01-12T19:36:03.713Z,39.2
2023-01-12T19:41:34.925Z,39.3
2023-01-12T19:47:05.920Z,39.6
2023-01-12T19:52:37.988Z,39.4
2023-01-12T19:57:53.257Z,38.9
2023-01-12T20:03:21.008Z,37.3
2023-01-12T20:08:33.642Z,36.4
2023-01-12T20:14:02.863Z,36.4
2023-01-12T20:19:34.568Z,35.2
2023-01-12T20:24:47.987Z,33.8
2023-01-12T20:30:01.990Z,32.9
2023-01-12T20:35:47.742Z,32
2023-01-12T20:41:15.440Z,31.4
2023-01-12T20:46:40.776Z,30.8
2023-01-12T20:52:08.030Z,30.4
2023-01-12T20:57:31.814Z,30
2023-01-12T21:02:44.057Z,29.7
2023-01-12T21:08:07.046Z,29.4
2023-01-12T21:13:17.533Z,29.1
2023-01-12T21:18:41.185Z,28.8
2023-01-12T21:24:04.531Z,28.5
2023-01-12T21:29:27.659Z,28.3
2023-01-12T21:34:51.597Z,28.1
2023-01-12T21:45:22.147Z,27.6
2023-01-12T21:50:32.331Z,27.3
2023-01-12T21:55:39.980Z,26.7
2023-01-12T22:00:47.025Z,26.3
2023-01-12T22:06:11.111Z,25.4
2023-01-12T22:11:18.409Z,24.9
2023-01-12T22:16:25.766Z,24.4
2023-01-12T22:21:48.480Z,24
2023-01-12T22:27:10.340Z,29.4
2023-01-12T22:32:33.471Z,33.4
2023-01-12T22:37:59.504Z,31.2
2023-01-12T22:43:06.231Z,28.9
2023-01-12T22:48:21.477Z,26.9
2023-01-12T22:53:44.693Z,26.1
2023-01-12T22:59:06.886Z,25.3
2023-01-12T23:04:14.560Z,24.7
2023-01-12T23:09:21.717Z,24.3
2023-01-12T23:14:28.763Z,26.2
2023-01-12T23:19:51.147Z,32.1
2023-01-12T23:25:13.166Z,32.8
2023-01-12T23:30:19.752Z,30.8
2023-01-12T23:40:48.717Z,26.5
2023-01-12T23:46:10.352Z,25.4
2023-01-12T23:51:32.090Z,24.9
2023-01-12T23:56:54.481Z,28.4
